createdAt,value
2022-10-22T00:02:25.161Z,68.53
2022-10-22T00:04:58.680Z,68.50
2022-10-22T00:07:34.705Z,68.33
2022-10-22T00:10:21.281Z,68.37
2022-10-22T00:12:54.830Z,68.54
2022-10-22T00:15:28.341Z,68.44
2022-10-22T00:18:01.955Z,68.47
2022-10-22T00:20:35.454Z,68.67
2022-10-22T00:23:08.970Z,68.59
2022-10-22T00:25:47.996Z,68.56
2022-10-22T00:28:21.895Z,68.66
2022-10-22T00:30:59.109Z,68.68
2022-10-22T00:33:32.974Z,68.62
2022-10-22T00:36:08.887Z,68.67
2022-10-22T00:38:42.533Z,68.67
2022-10-22T00:41:17.435Z,68.43
2022-10-22T00:44:00.330Z,68.65
2022-10-22T00:46:36.767Z,68.71
2022-10-22T00:49:10.195Z,68.80
2022-10-22T00:51:43.700Z,68.90
2022-10-22T00:54:17.214Z,68.91
2022-10-22T00:56:52.124Z,68.90
2022-10-22T00:59:25.685Z,69.21
2022-10-22T01:01:59.409Z,69.16
2022-10-22T01:04:32.918Z,69.25
2022-10-22T01:07:06.598Z,69.45
2022-10-22T01:09:46.634Z,69.45
2022-10-22T01:12:29.668Z,69.68
2022-10-22T01:15:12.211Z,69.58
2022-10-22T01:17:53.783Z,69.64
2022-10-22T01:20:48.415Z,69.77
2022-10-22T01:23:41.454Z,69.78
2022-10-22T01:26:26.043Z,70.00
2022-10-22T01:29:03.992Z,70.11
2022-10-22T01:31:44.561Z,70.42
2022-10-22T01:34:20.457Z,70.56
2022-10-22T01:36:56.114Z,70.70
2022-10-22T01:39:30.825Z,70.93
2022-10-22T01:42:04.432Z,71.17
2022-10-22T01:44:39.314Z,71.29
2022-10-22T01:47:31.399Z,71.54
2022-10-22T01:50:29.124Z,71.66
2022-10-22T01:53:20.302Z,71.67
2022-10-22T01:56:19.072Z,71.83
2022-10-22T01:58:59.722Z,72.10
2022-10-22T02:01:43.417Z,72.12
2022-10-22T02:04:21.701Z,72.30
2022-10-22T02:06:59.758Z,72.35
2022-10-22T02:09:34.708Z,72.46
2022-10-22T02:12:09.699Z,72.77
2022-10-22T02:14:45.117Z,72.62
2022-10-22T02:17:23.054Z,72.80
2022-10-22T02:19:59.109Z,72.70
2022-10-22T02:22:32.807Z,72.91
2022-10-22T02:25:06.822Z,72.10
2022-10-22T02:27:45.664Z,72.34
2022-10-22T02:30:21.442Z,72.64
2022-10-22T02:33:03.876Z,72.71
2022-10-22T02:35:38.686Z,72.62
2022-10-22T02:38:14.937Z,72.61
2022-10-22T02:40:48.627Z,72.62
2022-10-22T02:43:21.967Z,72.03
2022-10-22T02:45:55.450Z,72.19
2022-10-22T02:48:30.409Z,72.48
2022-10-22T02:51:03.978Z,72.51
2022-10-22T02:53:37.781Z,72.61
2022-10-22T02:56:11.459Z,71.96
2022-10-22T02:58:45.021Z,72.16
2022-10-22T03:01:18.618Z,72.50
2022-10-22T03:03:53.624Z,72.68
2022-10-22T03:06:27.513Z,72.82
2022-10-22T03:09:02.729Z,72.71
2022-10-22T03:11:35.963Z,72.12
2022-10-22T03:14:09.506Z,72.32
2022-10-22T03:16:42.981Z,72.39
2022-10-22T03:19:18.184Z,72.54
2022-10-22T03:21:55.225Z,72.54
2022-10-22T03:24:32.298Z,72.56
2022-10-22T03:27:05.911Z,72.65
2022-10-22T03:29:40.045Z,71.99
2022-10-22T03:32:14.185Z,72.14
2022-10-22T03:34:51.561Z,72.28
2022-10-22T03:37:26.698Z,72.27
2022-10-22T03:40:00.477Z,72.23
2022-10-22T03:42:33.765Z,71.50
2022-10-22T03:45:08.677Z,71.80
2022-10-22T03:47:42.505Z,72.05
2022-10-22T03:50:18.159Z,72.23
2022-10-22T03:52:51.668Z,72.09
2022-10-22T03:55:25.361Z,72.04
2022-10-22T03:57:58.829Z,71.97
2022-10-22T04:00:32.478Z,72.00
2022-10-22T04:03:06.094Z,71.93
2022-10-22T04:05:41.077Z,72.05
2022-10-22T04:08:14.609Z,72.10
2022-10-22T04:10:53.010Z,72.15
2022-10-22T04:13:27.110Z,72.11
2022-10-22T04:16:08.750Z,71.98
2022-10-22T04:18:43.147Z,71.95
2022-10-22T04:21:20.216Z,72.12
2022-10-22T04:23:54.458Z,72.04
2022-10-22T04:26:27.956Z,72.15
2022-10-22T04:29:01.710Z,72.04
2022-10-22T04:31:35.354Z,71.89
2022-10-22T04:34:08.940Z,71.88
2022-10-22T04:36:43.932Z,71.91
2022-10-22T04:39:17.456Z,71.95
2022-10-22T04:41:50.972Z,71.92
2022-10-22T04:44:24.656Z,71.73
2022-10-22T04:46:58.047Z,71.34
2022-10-22T04:49:31.580Z,71.47
2022-10-22T04:52:06.782Z,71.62
2022-10-22T04:54:40.283Z,71.60
2022-10-22T04:57:14.634Z,71.55
2022-10-22T04:59:48.205Z,71.56
2022-10-22T05:02:21.669Z,71.55
2022-10-22T05:04:55.158Z,71.53
2022-10-22T05:07:30.042Z,71.33
2022-10-22T05:10:03.601Z,71.34
2022-10-22T05:12:37.030Z,71.32
2022-10-22T05:15:11.225Z,71.28
2022-10-22T05:17:44.648Z,71.29
2022-10-22T05:20:18.339Z,71.11
2022-10-22T05:22:53.166Z,71.22
2022-10-22T05:25:26.706Z,71.31
2022-10-22T05:28:00.421Z,71.03
2022-10-22T05:30:33.662Z,70.68
2022-10-22T05:33:07.239Z,70.68
2022-10-22T05:35:45.578Z,70.74
2022-10-22T05:38:22.043Z,70.75
2022-10-22T05:41:02.102Z,70.66
2022-10-22T05:43:38.779Z,70.62
2022-10-22T05:46:16.621Z,70.61
2022-10-22T05:48:54.073Z,70.66
2022-10-22T05:51:29.517Z,70.73
2022-10-22T05:54:07.684Z,70.68
2022-10-22T05:56:41.177Z,70.57
2022-10-22T05:59:14.705Z,70.38
2022-10-22T06:01:48.380Z,70.33
2022-10-22T06:04:21.985Z,70.38
2022-10-22T06:06:55.682Z,70.27
2022-10-22T06:09:33.156Z,70.28
2022-10-22T06:12:09.347Z,70.22
2022-10-22T06:14:42.735Z,70.10
2022-10-22T06:17:16.226Z,70.14
2022-10-22T06:19:49.696Z,69.93
2022-10-22T06:22:23.162Z,69.95
2022-10-22T06:24:59.908Z,69.78
2022-10-22T06:27:33.411Z,69.84
2022-10-22T06:30:07.969Z,69.78
2022-10-22T06:32:42.105Z,69.71
2022-10-22T06:35:15.917Z,69.76
2022-10-22T06:37:49.422Z,69.65
2022-10-22T06:40:24.877Z,69.77
2022-10-22T06:43:00.523Z,69.76
2022-10-22T06:45:34.011Z,69.65
2022-10-22T06:48:08.183Z,69.51
2022-10-22T06:50:42.162Z,69.41
2022-10-22T06:53:15.705Z,69.33
2022-10-22T06:55:50.644Z,69.37
2022-10-22T06:58:24.338Z,69.29
2022-10-22T07:01:03.980Z,69.33
2022-10-22T07:03:38.496Z,69.21
2022-10-22T07:06:13.632Z,69.00
2022-10-22T07:08:47.131Z,68.79
2022-10-22T07:11:24.034Z,68.68
2022-10-22T07:13:59.148Z,68.58
2022-10-22T07:16:32.752Z,68.45
2022-10-22T07:19:07.291Z,68.34
2022-10-22T07:21:40.986Z,68.15
2022-10-22T07:24:14.263Z,67.86
2022-10-22T07:26:49.271Z,68.02
2022-10-22T07:29:22.785Z,68.08
2022-10-22T07:31:56.332Z,67.88
2022-10-22T07:34:29.854Z,67.81
2022-10-22T07:37:03.478Z,67.92
2022-10-22T07:39:37.035Z,67.97
2022-10-22T07:42:11.974Z,67.71
2022-10-22T07:44:45.413Z,67.97
2022-10-22T07:47:18.969Z,67.77
2022-10-22T07:49:52.423Z,67.51
2022-10-22T07:52:25.930Z,67.65
2022-10-22T07:54:59.473Z,67.53
2022-10-22T07:57:34.413Z,67.63
2022-10-22T08:00:09.819Z,67.75
2022-10-22T08:02:46.146Z,67.75
2022-10-22T08:05:19.717Z,67.52
2022-10-22T08:07:53.375Z,67.64
2022-10-22T08:10:26.514Z,67.20
2022-10-22T08:13:01.828Z,67.21
2022-10-22T08:15:35.847Z,67.41
2022-10-22T08:18:09.358Z,67.46
2022-10-22T08:20:43.263Z,67.39
2022-10-22T08:23:16.813Z,67.41
2022-10-22T08:25:50.437Z,67.39
2022-10-22T08:28:25.404Z,67.44
2022-10-22T08:30:58.915Z,67.46
2022-10-22T08:33:32.426Z,67.32
2022-10-22T08:36:07.267Z,67.42
2022-10-22T08:38:53.486Z,67.37
2022-10-22T08:41:55.063Z,67.56
2022-10-22T08:44:58.970Z,67.38
2022-10-22T08:48:05.536Z,67.34
2022-10-22T08:50:45.200Z,67.28
2022-10-22T08:53:37.962Z,67.37
2022-10-22T08:56:17.020Z,67.51
2022-10-22T08:59:04.899Z,67.38
2022-10-22T09:01:45.274Z,67.51
2022-10-22T09:04:34.147Z,67.31
2022-10-22T09:07:11.571Z,67.21
2022-10-22T09:09:53.019Z,67.42
2022-10-22T09:12:35.228Z,67.41
2022-10-22T09:15:27.573Z,67.05
2022-10-22T09:18:25.625Z,66.88
2022-10-22T09:21:07.305Z,66.81
2022-10-22T09:23:58.814Z,66.84
2022-10-22T09:26:40.935Z,66.46
2022-10-22T09:29:21.752Z,66.55
2022-10-22T09:31:55.423Z,66.48
2022-10-22T09:34:31.097Z,66.46
2022-10-22T09:37:06.580Z,66.64
2022-10-22T09:39:45.080Z,66.37
2022-10-22T09:42:23.799Z,66.50
2022-10-22T09:45:01.306Z,66.34
2022-10-22T09:47:43.414Z,66.48
2022-10-22T09:50:29.644Z,66.35
2022-10-22T09:53:12.709Z,66.37
2022-10-22T09:55:51.671Z,66.47
2022-10-22T09:58:25.589Z,66.66
2022-10-22T10:01:01.076Z,66.91
2022-10-22T10:03:34.931Z,66.92
2022-10-22T10:06:10.194Z,66.90
2022-10-22T10:08:43.837Z,66.99
2022-10-22T10:11:29.327Z,67.06
2022-10-22T10:14:15.037Z,67.02
2022-10-22T10:16:59.499Z,67.20
2022-10-22T10:19:47.197Z,67.18
2022-10-22T10:22:43.487Z,67.21
2022-10-22T10:25:49.739Z,67.01
2022-10-22T10:28:49.891Z,67.05
2022-10-22T10:31:34.278Z,67.32
2022-10-22T10:34:19.325Z,67.48
2022-10-22T10:37:01.688Z,67.71
2022-10-22T10:39:49.559Z,67.77
2022-10-22T10:42:32.204Z,67.74
2022-10-22T10:45:18.113Z,67.94
2022-10-22T10:48:11.369Z,67.98
2022-10-22T10:50:58.382Z,68.01
2022-10-22T10:53:49.790Z,68.06
2022-10-22T10:56:39.902Z,68.15
2022-10-22T10:59:19.019Z,68.16
2022-10-22T11:02:11.075Z,68.29
2022-10-22T11:05:17.158Z,68.24
2022-10-22T11:07:56.378Z,68.44
2022-10-22T11:10:38.549Z,68.78
2022-10-22T11:13:25.153Z,68.75
2022-10-22T11:16:06.238Z,68.82
2022-10-22T11:18:44.915Z,68.96
2022-10-22T11:21:27.100Z,68.84
2022-10-22T11:24:11.763Z,69.01
2022-10-22T11:26:50.279Z,69.10
2022-10-22T11:29:30.715Z,69.13
2022-10-22T11:32:10.844Z,68.89
2022-10-22T11:34:51.641Z,69.10
2022-10-22T11:37:27.900Z,69.10
2022-10-22T11:40:06.693Z,69.02
2022-10-22T11:42:47.997Z,69.24
2022-10-22T11:45:33.082Z,69.21
2022-10-22T11:48:19.079Z,68.89
2022-10-22T11:50:57.607Z,69.11
2022-10-22T11:53:33.928Z,69.04
2022-10-22T11:56:26.571Z,68.89
2022-10-22T11:59:10.084Z,69.12
2022-10-22T12:01:49.754Z,68.89
2022-10-22T12:04:24.492Z,68.90
2022-10-22T12:07:53.529Z,68.80
2022-10-22T12:10:43.099Z,68.82
2022-10-22T12:13:27.382Z,68.84
2022-10-22T12:16:05.098Z,68.76
2022-10-22T12:18:45.914Z,69.06
2022-10-22T12:21:19.580Z,68.90
2022-10-22T12:23:56.513Z,68.37
2022-10-22T12:26:34.979Z,68.55
2022-10-22T12:29:33.796Z,68.69
2022-10-22T12:32:16.030Z,68.72
2022-10-22T12:34:54.380Z,68.67
2022-10-22T12:37:33.471Z,68.78
2022-10-22T12:40:20.914Z,68.57
2022-10-22T12:42:56.660Z,68.83
2022-10-22T12:45:33.064Z,68.80
2022-10-22T12:48:23.623Z,68.83
2022-10-22T12:51:20.349Z,68.81
2022-10-22T12:54:08.766Z,68.79
2022-10-22T12:56:47.916Z,68.84
2022-10-22T12:59:29.176Z,69.11
2022-10-22T13:02:30.708Z,69.03
2022-10-22T13:05:30.306Z,69.04
2022-10-22T13:08:16.448Z,69.11
2022-10-22T13:11:01.730Z,69.18
2022-10-22T13:13:49.391Z,69.35
2022-10-22T13:16:29.076Z,69.32
2022-10-22T13:19:07.236Z,69.24
2022-10-22T13:21:42.917Z,69.63
2022-10-22T13:24:28.196Z,69.45
2022-10-22T13:27:02.445Z,69.71
2022-10-22T13:29:43.103Z,69.77
2022-10-22T13:32:34.039Z,69.71
2022-10-22T13:35:20.962Z,69.85
2022-10-22T13:37:56.553Z,69.67
2022-10-22T13:40:32.044Z,69.85
2022-10-22T13:43:07.714Z,69.73
2022-10-22T13:45:41.826Z,69.74
2022-10-22T13:48:19.533Z,69.81
2022-10-22T13:50:54.793Z,69.93
2022-10-22T13:53:30.235Z,69.82
2022-10-22T13:56:07.264Z,69.72
2022-10-22T13:58:40.690Z,69.52
2022-10-22T14:01:21.703Z,69.70
2022-10-22T14:03:58.118Z,69.75
2022-10-22T14:06:32.890Z,69.63
2022-10-22T14:09:09.527Z,69.76
2022-10-22T14:11:51.662Z,69.70
2022-10-22T14:14:25.106Z,69.66
2022-10-22T14:16:58.612Z,69.82
2022-10-22T14:19:32.799Z,69.86
2022-10-22T14:22:06.323Z,69.70
2022-10-22T14:24:40.026Z,69.77
2022-10-22T14:27:16.084Z,69.38
2022-10-22T14:29:49.739Z,69.63
2022-10-22T14:32:22.886Z,69.18
2022-10-22T14:34:56.361Z,69.56
2022-10-22T14:37:29.910Z,69.71
2022-10-22T14:40:03.361Z,69.77
2022-10-22T14:42:42.153Z,69.91
2022-10-22T14:45:19.187Z,69.87
2022-10-22T14:47:55.077Z,70.21
2022-10-22T14:50:28.788Z,70.26
2022-10-22T14:53:02.044Z,69.77
2022-10-22T14:55:35.677Z,70.07
2022-10-22T14:58:10.235Z,69.50
2022-10-22T15:00:44.467Z,70.07
2022-10-22T15:03:22.190Z,70.36
2022-10-22T15:06:05.090Z,70.51
2022-10-22T15:08:39.600Z,70.39
2022-10-22T15:11:17.671Z,70.56
2022-10-22T15:13:53.409Z,70.87
2022-10-22T15:16:40.674Z,70.73
2022-10-22T15:19:14.585Z,70.63
2022-10-22T15:21:48.274Z,70.80
2022-10-22T15:24:24.366Z,70.87
2022-10-22T15:26:57.615Z,70.35
2022-10-22T15:29:33.311Z,70.75
2022-10-22T15:32:07.886Z,70.99
2022-10-22T15:34:41.917Z,71.06
2022-10-22T15:37:15.499Z,71.01
2022-10-22T15:39:49.002Z,71.15
2022-10-22T15:42:23.441Z,71.29
2022-10-22T15:45:00.226Z,71.37
2022-10-22T15:47:34.104Z,71.53
2022-10-22T15:50:10.927Z,71.39
2022-10-22T15:52:44.717Z,71.54
2022-10-22T15:55:18.958Z,71.61
2022-10-22T15:58:00.537Z,71.44
2022-10-22T16:00:39.533Z,71.48
2022-10-22T16:03:13.262Z,71.57
2022-10-22T16:05:51.255Z,71.07
2022-10-22T16:08:27.280Z,71.32
2022-10-22T16:11:01.101Z,71.39
2022-10-22T16:13:37.009Z,71.62
2022-10-22T16:16:15.000Z,71.80
2022-10-22T16:18:48.579Z,71.69
2022-10-22T16:21:23.510Z,71.98
2022-10-22T16:23:57.031Z,71.86
2022-10-22T16:26:30.499Z,71.77
2022-10-22T16:29:04.617Z,71.86
2022-10-22T16:31:41.201Z,71.99
2022-10-22T16:34:14.855Z,72.05
2022-10-22T16:36:49.046Z,71.54
2022-10-22T16:39:22.814Z,71.77
2022-10-22T16:41:56.112Z,71.44
2022-10-22T16:44:29.719Z,71.92
2022-10-22T16:47:04.439Z,71.37
2022-10-22T16:49:38.085Z,72.05
2022-10-22T16:52:11.539Z,72.56
2022-10-22T16:54:46.900Z,72.78
2022-10-22T16:57:20.560Z,72.91
2022-10-22T16:59:56.086Z,73.23
2022-10-22T17:02:31.137Z,73.44
2022-10-22T17:05:04.996Z,73.66
2022-10-22T17:07:38.531Z,73.67
2022-10-22T17:10:12.107Z,73.74
2022-10-22T17:12:49.650Z,73.85
2022-10-22T17:15:23.234Z,74.02
2022-10-22T17:18:00.664Z,74.12
2022-10-22T17:20:34.190Z,74.12
2022-10-22T17:23:07.685Z,74.25
2022-10-22T17:25:44.299Z,74.61
2022-10-22T17:28:17.726Z,74.43
2022-10-22T17:30:51.253Z,74.43
2022-10-22T17:33:26.216Z,74.59
2022-10-22T17:36:00.076Z,74.70
2022-10-22T17:38:33.633Z,74.71
2022-10-22T17:41:08.711Z,74.85
2022-10-22T17:43:43.883Z,74.75
2022-10-22T17:46:19.717Z,74.92
2022-10-22T17:48:56.344Z,75.13
2022-10-22T17:51:31.951Z,75.14
2022-10-22T17:54:08.805Z,75.08
2022-10-22T17:56:43.776Z,75.25
2022-10-22T17:59:17.973Z,74.74
2022-10-22T18:01:51.431Z,74.88
2022-10-22T18:04:26.377Z,75.02
2022-10-22T18:07:00.846Z,75.23
2022-10-22T18:09:34.400Z,75.33
2022-10-22T18:12:08.781Z,75.28
2022-10-22T18:14:42.530Z,75.62
2022-10-22T18:17:17.143Z,74.86
2022-10-22T18:19:52.112Z,75.34
2022-10-22T18:22:25.590Z,75.32
2022-10-22T18:24:59.006Z,74.93
2022-10-22T18:27:33.865Z,75.25
2022-10-22T18:30:08.846Z,75.46
2022-10-22T18:32:42.451Z,75.66
2022-10-22T18:35:17.463Z,75.83
2022-10-22T18:37:51.078Z,76.00
2022-10-22T18:40:24.641Z,76.10
2022-10-22T18:42:58.286Z,76.01
2022-10-22T18:45:31.502Z,75.41
2022-10-22T18:48:05.796Z,75.76
2022-10-22T18:50:40.821Z,76.00
2022-10-22T18:53:16.479Z,76.12
2022-10-22T18:55:50.044Z,76.20
2022-10-22T18:58:23.675Z,76.27
2022-10-22T19:00:57.008Z,75.92
2022-10-22T19:03:30.927Z,75.99
2022-10-22T19:06:06.335Z,76.31
2022-10-22T19:08:39.923Z,76.41
2022-10-22T19:11:15.462Z,76.44
2022-10-22T19:13:48.924Z,76.63
2022-10-22T19:16:34.906Z,76.58
2022-10-22T19:19:09.044Z,76.71
2022-10-22T19:21:44.016Z,76.88
2022-10-22T19:24:18.925Z,76.85
2022-10-22T19:26:52.342Z,76.96
2022-10-22T19:29:25.802Z,76.80
2022-10-22T19:31:59.406Z,76.98
2022-10-22T19:34:32.596Z,76.38
2022-10-22T19:37:07.841Z,76.54
2022-10-22T19:39:46.429Z,76.68
2022-10-22T19:42:21.013Z,76.85
2022-10-22T19:44:54.897Z,76.99
2022-10-22T19:47:29.412Z,77.06
2022-10-22T19:50:02.969Z,77.07
2022-10-22T19:52:40.774Z,77.16
2022-10-22T19:55:16.652Z,77.16
2022-10-22T19:57:50.078Z,77.16
2022-10-22T20:00:23.795Z,77.20
2022-10-22T20:02:57.325Z,77.26
2022-10-22T20:05:30.935Z,77.11
2022-10-22T20:08:05.695Z,76.78
2022-10-22T20:10:39.741Z,76.99
2022-10-22T20:13:13.284Z,77.22
2022-10-22T20:15:49.486Z,77.30
2022-10-22T20:18:23.525Z,77.30
2022-10-22T20:20:57.122Z,77.19
2022-10-22T20:23:31.997Z,77.22
2022-10-22T20:26:08.044Z,77.20
2022-10-22T20:28:41.592Z,77.18
2022-10-22T20:31:19.997Z,77.04
2022-10-22T20:33:53.401Z,77.16
2022-10-22T20:36:28.735Z,77.26
2022-10-22T20:39:07.023Z,77.16
2022-10-22T20:41:43.280Z,77.40
2022-10-22T20:44:19.836Z,77.33
2022-10-22T20:46:53.748Z,77.20
2022-10-22T20:49:27.744Z,77.30
2022-10-22T20:52:01.275Z,77.42
2022-10-22T20:54:41.463Z,77.33
2022-10-22T20:57:15.457Z,77.23
2022-10-22T20:59:48.934Z,77.33
2022-10-22T21:02:22.497Z,77.33
2022-10-22T21:04:55.767Z,76.80
2022-10-22T21:07:29.257Z,77.05
2022-10-22T21:10:05.301Z,77.20
2022-10-22T21:12:42.174Z,77.24
2022-10-22T21:15:16.002Z,77.29
2022-10-22T21:17:49.804Z,77.27
2022-10-22T21:20:24.816Z,77.33
2022-10-22T21:22:58.658Z,77.38
2022-10-22T21:25:33.659Z,77.41
2022-10-22T21:28:07.390Z,77.34
2022-10-22T21:30:45.597Z,76.91
2022-10-22T21:33:19.491Z,77.05
2022-10-22T21:35:54.135Z,77.19
2022-10-22T21:38:27.806Z,77.23
2022-10-22T21:41:05.773Z,77.44
2022-10-22T21:43:40.764Z,77.30
2022-10-22T21:46:16.930Z,77.35
2022-10-22T21:48:54.447Z,77.39
2022-10-22T21:51:27.977Z,77.38
2022-10-22T21:54:01.564Z,77.54
2022-10-22T21:56:37.727Z,77.43
2022-10-22T21:59:14.015Z,77.45
2022-10-22T22:01:47.618Z,77.41
2022-10-22T22:04:21.138Z,77.41
2022-10-22T22:06:54.850Z,77.52
2022-10-22T22:09:30.993Z,77.44
2022-10-22T22:12:06.180Z,77.76
2022-10-22T22:14:39.692Z,77.40
2022-10-22T22:17:14.350Z,77.45
2022-10-22T22:19:47.937Z,77.48
2022-10-22T22:22:21.487Z,77.45
2022-10-22T22:24:55.024Z,77.48
2022-10-22T22:27:37.216Z,77.56
2022-10-22T22:30:16.592Z,77.71
2022-10-22T22:32:50.072Z,77.84
2022-10-22T22:35:53.594Z,77.79
2022-10-22T22:38:27.165Z,77.73
2022-10-22T22:41:00.753Z,77.83
2022-10-22T22:43:35.890Z,77.90
2022-10-22T22:46:12.225Z,77.97
2022-10-22T22:48:46.222Z,78.13
2022-10-22T22:51:19.987Z,77.99
2022-10-22T22:53:53.618Z,78.05
2022-10-22T22:56:27.894Z,77.39
2022-10-22T22:59:02.783Z,77.52
2022-10-22T23:01:37.795Z,77.79
2022-10-22T23:04:16.419Z,78.01
2022-10-22T23:06:50.949Z,77.85
2022-10-22T23:09:24.477Z,77.92
2022-10-22T23:11:58.624Z,78.09
2022-10-22T23:14:35.497Z,77.96
2022-10-22T23:17:08.989Z,77.83
2022-10-22T23:19:42.386Z,77.83
2022-10-22T23:22:15.819Z,77.92
2022-10-22T23:24:49.281Z,77.95
2022-10-22T23:27:22.689Z,77.84
2022-10-22T23:29:57.552Z,77.91
2022-10-22T23:32:33.285Z,78.00
2022-10-22T23:35:07.294Z,78.10
2022-10-22T23:37:41.045Z,77.95
2022-10-22T23:40:14.729Z,77.97
2022-10-22T23:42:48.162Z,77.81
2022-10-22T23:45:23.035Z,77.74
2022-10-22T23:48:01.837Z,77.95
2022-10-22T23:50:39.998Z,78.05
2022-10-22T23:53:13.631Z,77.82
2022-10-22T23:55:46.746Z,77.59
2022-10-22T23:58:20.175Z,77.88
